createdAt,value
2023-05-14T00:08:04.903Z,13.10
2023-05-14T00:18:08.421Z,16.00
2023-05-14T00:28:11.550Z,11.50
2023-05-14T00:38:19.500Z,15.00
2023-05-14T00:48:23.605Z,11.70
2023-05-14T00:58:27.174Z,10.40
2023-05-14T01:08:42.435Z,15.20
2023-05-14T01:19:42.250Z,15.40
2023-05-14T01:30:23.442Z,12.00
2023-05-14T01:40:27.278Z,12.20
2023-05-14T01:50:30.693Z,11.00
2023-05-14T02:00:33.823Z,10.20
2023-05-14T02:10:37.002Z,11.90
2023-05-14T02:20:40.081Z,10.90
2023-05-14T02:30:43.080Z,11.90
2023-05-14T02:40:46.356Z,14.00
2023-05-14T02:50:52.499Z,10.30
2023-05-14T03:00:55.835Z,9.40
2023-05-14T03:10:59.725Z,12.90
2023-05-14T03:21:04.081Z,14.20
2023-05-14T03:31:07.256Z,12.00
2023-05-14T03:41:10.552Z,9.80
2023-05-14T03:51:13.621Z,12.90
2023-05-14T04:01:16.831Z,11.40
2023-05-14T04:11:19.930Z,13.40
2023-05-14T04:21:23.000Z,11.90
2023-05-14T04:31:26.174Z,12.80
2023-05-14T04:41:29.249Z,12.40
2023-05-14T04:51:32.712Z,11.00
2023-05-14T05:01:35.846Z,9.60
2023-05-14T05:11:39.377Z,10.10
2023-05-14T05:21:42.590Z,7.40
2023-05-14T05:31:45.654Z,7.60
2023-05-14T05:41:48.925Z,6.50
2023-05-14T05:51:52.302Z,5.50
2023-05-14T06:01:55.687Z,7.60
2023-05-14T06:11:59.046Z,4.30
2023-05-14T06:22:02.950Z,5.20
2023-05-14T06:32:06.541Z,7.10
2023-05-14T06:42:09.804Z,4.10
2023-05-14T06:52:12.876Z,5.00
2023-05-14T07:02:16.014Z,3.90
2023-05-14T07:12:25.065Z,3.70
2023-05-14T07:22:30.316Z,3.80
2023-05-14T07:32:36.161Z,2.70
2023-05-14T07:42:43.877Z,2.30
2023-05-14T07:52:47.961Z,3.60
2023-05-14T08:02:52.068Z,2.40
2023-05-14T08:12:55.609Z,2.00
2023-05-14T08:22:58.825Z,5.10
2023-05-14T08:33:01.876Z,1.70
2023-05-14T08:43:06.549Z,2.60
2023-05-14T08:53:09.702Z,2.50
2023-05-14T09:03:13.456Z,2.10
2023-05-14T09:13:16.643Z,1.80
2023-05-14T09:23:19.759Z,2.30
2023-05-14T09:33:29.652Z,4.30
2023-05-14T09:43:32.704Z,2.40
2023-05-14T09:53:35.943Z,3.40
2023-05-14T10:03:39.486Z,2.60
2023-05-14T10:13:47.704Z,2.50
2023-05-14T10:23:51.354Z,2.20
2023-05-14T10:33:55.212Z,2.90
2023-05-14T10:43:59.364Z,1.90
2023-05-14T10:54:02.510Z,2.70
2023-05-14T11:04:06.098Z,2.40
2023-05-14T11:14:10.596Z,2.90
2023-05-14T11:24:13.795Z,1.80
2023-05-14T11:34:17.124Z,2.60
2023-05-14T11:44:20.642Z,5.60
2023-05-14T11:54:26.163Z,2.30
2023-05-14T12:04:31.230Z,2.50
2023-05-14T12:14:38.440Z,3.50
2023-05-14T12:24:43.045Z,4.40
2023-05-14T12:34:46.415Z,6.60
2023-05-14T12:44:49.891Z,3.70
2023-05-14T12:54:53.204Z,4.10
2023-05-14T13:04:56.593Z,4.00
2023-05-14T13:14:59.784Z,2.40
2023-05-14T13:25:03.689Z,2.30
2023-05-14T13:35:07.954Z,2.70
2023-05-14T13:45:11.889Z,2.00
2023-05-14T13:55:15.185Z,6.10
2023-05-14T14:05:18.397Z,3.90
2023-05-14T14:15:21.989Z,4.80
2023-05-14T14:25:25.505Z,2.80
2023-05-14T14:35:28.884Z,3.60
2023-05-14T14:45:32.203Z,2.60
2023-05-14T14:55:35.337Z,4.30
2023-05-14T15:05:38.445Z,2.70
2023-05-14T15:15:41.541Z,3.70
2023-05-14T15:25:44.942Z,2.40
2023-05-14T15:35:48.120Z,7.70
2023-05-14T15:45:51.455Z,3.90
2023-05-14T15:55:55.408Z,3.40
2023-05-14T16:06:23.633Z,8.80
2023-05-14T16:16:27.209Z,2.70
2023-05-14T16:26:30.814Z,2.80
2023-05-14T16:36:34.461Z,11.10
2023-05-14T16:46:37.877Z,7.30
2023-05-14T16:56:48.181Z,7.80
2023-05-14T17:06:53.218Z,3.40
2023-05-14T17:16:57.143Z,3.70
2023-05-14T17:27:00.359Z,4.30
2023-05-14T17:37:03.561Z,3.20
2023-05-14T17:47:08.401Z,3.70
2023-05-14T17:57:11.595Z,5.30
2023-05-14T18:07:14.798Z,4.60
2023-05-14T18:17:18.089Z,5.50
2023-05-14T18:27:21.295Z,2.40
2023-05-14T18:37:26.988Z,4.30
2023-05-14T18:47:35.130Z,3.20
2023-05-14T18:57:38.458Z,2.30
2023-05-14T19:07:41.950Z,3.80
2023-05-14T19:17:45.386Z,6.00
2023-05-14T19:28:13.949Z,5.10
2023-05-14T19:38:21.073Z,3.50
2023-05-14T19:48:49.627Z,4.70
2023-05-14T20:11:33.303Z,3.00
2023-05-14T20:21:36.511Z,3.90
2023-05-14T20:32:05.035Z,9.20
2023-05-14T20:42:08.151Z,4.60
2023-05-14T20:52:11.343Z,2.90
2023-05-14T21:02:14.948Z,4.90
2023-05-14T21:12:19.350Z,2.70
2023-05-14T21:22:22.563Z,3.60
2023-05-14T21:32:25.828Z,2.70
2023-05-14T21:42:53.735Z,4.20
2023-05-14T21:52:57.046Z,4.40
2023-05-14T22:03:00.292Z,10.10
2023-05-14T22:13:03.346Z,3.70
2023-05-14T22:23:06.369Z,4.40
2023-05-14T22:33:09.650Z,3.00
2023-05-14T22:43:12.897Z,5.20
2023-05-14T22:53:15.965Z,3.90
2023-05-14T23:03:19.170Z,2.90
2023-05-14T23:13:48.087Z,3.40
2023-05-14T23:23:51.228Z,5.60
2023-05-14T23:33:54.429Z,5.30
2023-05-14T23:43:57.447Z,6.20
2023-05-14T23:54:00.518Z,7.20
